Flight Track Log - Related Links

Times and Time Zones

All times are in EDT time to prevent confusion due to time zone crossing. See the NKS904 flight status page for this flight to view local times or setup timezone preferences in your user account.

Time Position Orientation Groundspeed Altitude Reporting Facility
EDT Latitude Longitude Course Direction KTS MPH feet Rate Location/Type
Sun 01:48:32 PM 32.8660 -97.0300 179° South 167 192 1,700  Level FlightAware ADS-B
Sun 01:49:07 PM 32.8330 -97.0300 180° South 212 244 2,400 1,200 Climbing FlightAware ADS-B
Sun 01:49:32 PM 32.8060 -97.0290 178° South 252 290 2,900 2,291 Climbing FlightAware ADS-B
Sun 01:50:02 PM 32.7660 -97.0300 181° South 267 307 4,500 3,086 Climbing FlightAware ADS-B
Sun 01:50:42 PM 32.7160 -97.0210 171° South 279 321 6,500 2,836 Climbing FlightAware ADS-B
Sun 01:50:57 PM 32.7050 -97.0080 135° Southeast 278 320 7,100 2,400 Climbing FlightAware ADS-B
Sun 01:51:12 PM 32.6970 -96.9840 112° Southeast 284 327 7,700 2,880 Climbing FlightAware ADS-B
Sun 01:51:22 PM 32.6940 -96.9680 103° East 286 329 8,300 2,743 Climbing FlightAware ADS-B
Sun 01:51:47 PM 32.6880 -96.9320 101° East 283 326 9,300 1,400 Climbing FlightAware ADS-B
Sun 01:52:22 PM 32.6920 -96.8740 85° East 281 323 9,700 533 Climbing FlightAware ADS-B
Sun 01:52:32 PM 32.6930 -96.8580 86° East 280 322 9,700 982 Level FlightAware ADS-B
Sun 01:53:17 PM 32.7030 -96.7870 80° East 318 366 10,600 1,482 Climbing FlightAware ADS-B
Sun 01:53:57 PM 32.7280 -96.7180 67° East 347 399 11,800 1,906 Climbing FlightAware ADS-B
Sun 01:54:42 PM 32.7560 -96.6390 67° East 364 419 13,300 2,188 Climbing FlightAware ADS-B
Sun 01:55:22 PM 32.7840 -96.5600 67° East 374 430 14,900 2,047 Climbing FlightAware ADS-B
Sun 01:56:07 PM 32.8150 -96.4740 67° East 390 449 16,200 1,906 Climbing FlightAware ADS-B
Sun 01:56:47 PM 32.8430 -96.3950 67° East 393 452 17,600 1,950 Climbing FlightAware ADS-B
Sun 01:57:27 PM 32.8660 -96.3160 71° East 408 470 18,800 1,694 Climbing FlightAware ADS-B
Sun 01:58:12 PM 32.8680 -96.2070 89° East 421 484 20,000 1,624 Climbing FlightAware ADS-B
Sun 01:58:52 PM 32.8690 -96.1160 89° East 428 493 21,100 1,425 Climbing FlightAware ADS-B
Sun 01:59:32 PM 32.8710 -96.0210 89° East 440 506 21,900 1,200 Climbing FlightAware ADS-B
Sun 02:00:17 PM 32.8720 -95.9180 89° East 451 519 22,800 1,200 Climbing FlightAware ADS-B
Sun 02:01:02 PM 32.8740 -95.8010 89° East 460 529 23,700 1,059 Climbing FlightAware ADS-B
Sun 02:01:42 PM 32.8760 -95.6970 89° East 471 542 24,300 1,034 Climbing FlightAware ADS-B
Sun 02:02:29 PM 32.8776 -95.5681 89° East 478 550 25,200 1,011 Climbing FlightAware ADS-B
Sun 02:03:17 PM 32.8790 -95.4440 89° East 492 566 25,900 947 Climbing FlightAware ADS-B
Sun 02:03:26 PM 32.8797 -95.4142 88° East 496 571 26,100 1,000 Climbing FlightAware ADS-B
Sun 02:03:41 PM 32.8809 -95.3746 88° East 500 575 26,300 527 Climbing FlightAware ADS-B
Sun 02:04:57 PM 32.9090 -95.1850 80° East 505 581 26,900 310 Climbing FlightAware ADS-B
Sun 02:05:37 PM 32.9240 -95.0920 79° East 505 581 26,900 1,200 Level FlightAware ADS-B
Sun 02:06:17 PM 32.9430 -94.9560 81° East 528 608 28,500 2,000 Climbing FlightAware ADS-B
Sun 02:06:34 PM 32.9528 -94.8907 80° East 527 606 28,800 889 Climbing FlightAware ADS-B
Sun 02:07:11 PM 32.9687 -94.7848 80° East 539 620 29,300 940 Climbing FlightAware ADS-B
Sun 02:07:57 PM 32.9880 -94.6540 80° East 543 625 30,100 989 Climbing FlightAware ADS-B
Sun 02:08:42 PM 33.0080 -94.5220 80° East 548 631 30,800 1,011 Climbing FlightAware ADS-B
Sun 02:09:26 PM 33.0277 -94.3856 80° East 549 632 31,600 600 Climbing FlightAware ADS-B
Sun 02:10:02 PM 33.0410 -94.2970 80° East 548 631 31,600 1,013 Level FlightAware ADS-B
Sun 02:10:43 PM 33.0224 -94.1589 99° East 548 631 32,900 1,500 Climbing FlightAware ADS-B
Sun 02:11:26 PM 33.0030 -94.0364 101° East 532 612 33,700 904 Climbing FlightAware ADS-B
Sun 02:11:56 PM 32.9892 -93.9489 101° East 535 616 34,000 689 Climbing FlightAware ADS-B
Sun 02:12:27 PM 32.9747 -93.8582 101° East 539 620 34,400 825 Climbing FlightAware ADS-B
Sun 02:13:16 PM 32.9515 -93.7160 101° East 540 621 35,100 835 Climbing FlightAware ADS-B
Sun 02:13:46 PM 32.9371 -93.6273 101° East 541 623 35,500 787 Climbing FlightAware ADS-B
Sun 02:14:17 PM 32.9227 -93.5401 101° East 543 625 35,900 787 Climbing FlightAware ADS-B
Sun 02:14:47 PM 32.9081 -93.4509 101° East 544 626 36,300 696 Climbing FlightAware ADS-B
Sun 02:15:26 PM 32.8896 -93.3400 101° East 544 626 36,700 592 Climbing FlightAware ADS-B
Sun 02:15:58 PM 32.8735 -93.2440 101° East 544 626 37,000 290 Climbing FlightAware ADS-B
Sun 02:16:28 PM 32.8587 -93.1547 101° East 541 623 37,000  Level FlightAware ADS-B
Sun 02:17:26 PM 32.8309 -92.9888 101° East 543 625 37,000  Level FlightAware ADS-B
Sun 02:18:22 PM 32.8058 -92.8189 101° East 541 623 37,000  Level Fort Worth Center
Sun 02:19:22 PM 32.7764 -92.6450 101° East 541 623 37,000  Level Fort Worth Center
Sun 02:20:22 PM 32.7467 -92.4689 101° East 541 623 37,000  Level Fort Worth Center
Sun 02:21:22 PM 32.7169 -92.2978 102° East 541 623 37,000  Level Fort Worth Center
Sun 02:23:32 PM 32.6414 -91.9139 103° East 560 644 37,000  Level Memphis Center
Sun 02:24:32 PM 32.6100 -91.7408 102° East 555 639 37,000  Level Memphis Center
Sun 02:25:32 PM 32.5806 -91.5653 101° East 548 631 37,000  Level Memphis Center
Sun 02:26:32 PM 32.5486 -91.3900 102° East 548 631 37,000  Level Memphis Center
Sun 02:27:32 PM 32.5167 -91.2172 102° East 543 625 37,000  Level Memphis Center
Sun 02:28:32 PM 32.4822 -91.0394 103° East 543 625 37,000  Level Memphis Center
Sun 02:29:32 PM 32.4517 -90.8669 102° East 543 625 37,000  Level Memphis Center
Sun 02:35:42 PM 32.2460 -89.7840 102° East 545 627 37,000  Level FlightAware ADS-B
Sun 02:36:42 PM 32.2130 -89.6150 103° East 543 625 37,000  Level FlightAware ADS-B
Sun 02:37:22 PM 32.1930 -89.5150 103° East 543 625 37,000  Level FlightAware ADS-B
Sun 02:38:02 PM 32.1740 -89.4160 103° East 543 625 37,000  Level FlightAware ADS-B
Sun 02:38:42 PM 32.1550 -89.3180 103° East 543 625 37,000  Level FlightAware ADS-B
Sun 02:39:27 PM 32.1170 -89.1360 104° East 545 627 37,000  Level FlightAware ADS-B
Sun 02:40:07 PM 32.0970 -89.0380 104° East 545 627 37,000  Level FlightAware ADS-B
Sun 02:40:47 PM 32.0780 -88.9390 103° East 545 627 37,000  Level FlightAware ADS-B
Sun 02:41:27 PM 32.0590 -88.8410 103° East 545 627 37,000  Level FlightAware ADS-B
Sun 02:42:17 PM 32.0170 -88.6480 104° East 550 633 37,000  Level FlightAware ADS-B
Sun 02:42:57 PM 31.9920 -88.5290 104° East 550 633 37,000  Level FlightAware ADS-B
Sun 02:43:37 PM 31.9690 -88.4160 103° East 550 633 37,000  Level FlightAware ADS-B
Sun 02:44:17 PM 31.9450 -88.3010 104° East 550 633 37,000  Level FlightAware ADS-B
Sun 02:45:02 PM 31.9160 -88.1670 104° East 550 633 37,000  Level FlightAware ADS-B
Sun 02:46:02 PM 31.8820 -88.0030 104° East 550 633 37,000  Level FlightAware ADS-B
Sun 02:46:42 PM 31.8550 -87.8770 104° East 550 633 37,000  Level FlightAware ADS-B
Sun 02:47:17 PM 31.8350 -87.7830 104° East 550 633 37,000  Level FlightAware ADS-B
Sun 02:48:02 PM 31.8110 -87.6610 103° East 550 633 37,000  Level FlightAware ADS-B
Sun 02:48:47 PM 31.7780 -87.5170 105° East 550 633 37,000  Level FlightAware ADS-B
Sun 02:49:32 PM 31.7500 -87.3920 105° East 550 633 37,000  Level FlightAware ADS-B
Sun 02:50:12 PM 31.7270 -87.2830 104° East 549 632 37,000  Level FlightAware ADS-B
Sun 02:50:52 PM 31.7060 -87.1850 104° East 549 632 37,000  Level FlightAware ADS-B
Sun 02:51:32 PM 31.6850 -87.0860 104° East 549 632 37,000  Level FlightAware ADS-B
Sun 02:52:17 PM 31.6460 -86.9150 105° East 549 632 37,000  Level FlightAware ADS-B
Sun 02:52:57 PM 31.6220 -86.8030 104° East 549 632 37,000  Level FlightAware ADS-B
Sun 02:53:37 PM 31.6010 -86.7050 104° East 549 632 37,000  Level FlightAware ADS-B
Sun 02:54:17 PM 31.5800 -86.6070 104° East 549 632 37,000  Level FlightAware ADS-B
Sun 02:55:07 PM 31.5540 -86.4840 104° East 549 632 37,000  Level FlightAware ADS-B
Sun 02:55:47 PM 31.5330 -86.3850 104° East 549 632 37,000  Level FlightAware ADS-B
Sun 02:56:27 PM 31.5120 -86.2870 104° East 549 632 37,000  Level FlightAware ADS-B
Sun 02:57:07 PM 31.4910 -86.1890 104° East 549 632 37,000  Level FlightAware ADS-B
Sun 02:57:57 PM 31.4650 -86.0660 104° East 549 632 37,000  Level FlightAware ADS-B
Sun 02:58:37 PM 31.4440 -85.9680 104° East 549 632 37,000  Level FlightAware ADS-B
Sun 02:59:22 PM 31.4230 -85.8700 104° East 549 632 37,000  Level FlightAware ADS-B
Sun 02:59:57 PM 31.4020 -85.7710 104° East 549 632 37,000  Level FlightAware ADS-B
Sun 03:00:37 PM 31.3810 -85.6730 104° East 549 632 37,000  Level FlightAware ADS-B
Sun 03:01:27 PM 31.3550 -85.5510 104° East 549 632 37,000  Level FlightAware ADS-B
Sun 03:02:07 PM 31.3340 -85.4520 104° East 549 632 37,000  Level FlightAware ADS-B
Sun 03:03:16 PM 31.2089 -85.0300 104° East 553 636 37,000  Level Jacksonville Center
Sun 03:04:16 PM 31.1658 -84.8544 106° East 553 636 37,000  Level Jacksonville Center
Sun 03:05:16 PM 31.1267 -84.6836 105° East 553 636 37,000  Level Jacksonville Center
Sun 03:11:12 PM 30.7410 -83.7620 105° East 533 613 37,000 -332 Level FlightAware ADS-B
Sun 03:12:12 PM 30.6520 -83.6100 124° Southeast 538 619 34,700 -1,800 Descending FlightAware ADS-B
Sun 03:12:52 PM 30.6010 -83.5190 123° Southeast 540 621 34,000 -525 Descending FlightAware ADS-B
Sun 03:13:32 PM 30.5550 -83.4360 123° Southeast 540 621 34,000  Level FlightAware ADS-B
Sun 03:14:12 PM 30.5090 -83.3540 123° Southeast 540 621 34,000  Level FlightAware ADS-B
Sun 03:14:52 PM 30.4620 -83.2710 123° Southeast 540 621 34,000  Level FlightAware ADS-B
Sun 03:15:32 PM 30.4160 -83.1880 123° Southeast 540 621 34,000  Level FlightAware ADS-B
Sun 03:16:22 PM 30.3580 -83.0850 123° Southeast 540 621 34,000  Level FlightAware ADS-B
Sun 03:17:02 PM 30.3120 -83.0030 123° Southeast 540 621 34,000  Level FlightAware ADS-B
Sun 03:17:42 PM 30.2660 -82.9200 123° Southeast 540 621 34,000  Level FlightAware ADS-B
Sun 03:18:22 PM 30.2200 -82.8380 123° Southeast 540 621 34,000  Level FlightAware ADS-B
Sun 03:19:02 PM 30.1730 -82.7550 123° Southeast 540 621 34,000  Level FlightAware ADS-B
Sun 03:19:52 PM 30.1150 -82.6520 123° Southeast 540 621 34,000  Level FlightAware ADS-B
Sun 03:20:32 PM 30.0690 -82.5700 123° Southeast 540 621 34,000  Level FlightAware ADS-B
Sun 03:21:02 PM 30.0340 -82.5080 123° Southeast 540 621 34,000  Level FlightAware ADS-B
Sun 03:21:42 PM 29.9880 -82.4260 123° Southeast 540 621 34,000 -6,776 Level FlightAware ADS-B
Sun 03:22:27 PM 29.8010 -82.3920 171° South 423 487 24,400 -6,776 Descending FlightAware ADS-B
Sun 03:23:07 PM 29.7300 -82.3660 162° South 423 487 24,400 -480 Level FlightAware ADS-B
Sun 03:23:42 PM 29.6570 -82.3400 163° South 414 476 23,800 -450 Descending FlightAware ADS-B
Sun 03:24:27 PM 29.5850 -82.3130 162° South 414 476 23,800  Level FlightAware ADS-B
Sun 03:25:07 PM 29.5230 -82.2900 162° South 414 476 23,800 -1,920 Level FlightAware ADS-B
Sun 03:26:07 PM 29.4040 -82.2320 157° South 400 460 20,600 -3,200 Descending FlightAware ADS-B
Sun 03:26:52 PM 29.3270 -82.1880 154° Southeast 390 449 18,200 -2,471 Descending FlightAware ADS-B
Sun 03:27:32 PM 29.2690 -82.1540 153° Southeast 377 434 17,100 -1,800 Descending FlightAware ADS-B
Sun 03:28:12 PM 29.2020 -82.1160 154° Southeast 367 422 15,800 -1,694 Descending FlightAware ADS-B
Sun 03:28:57 PM 29.1340 -82.0760 153° Southeast 370 426 14,700 -918 Descending FlightAware ADS-B
Sun 03:29:37 PM 29.0780 -82.0440 153° Southeast 376 433 14,500 -660 Descending FlightAware ADS-B
Sun 03:30:37 PM 28.9870 -81.9910 153° Southeast 372 428 13,600 -1,740 Descending FlightAware ADS-B
Sun 03:31:17 PM 28.9180 -81.9510 153° Southeast 363 418 11,600 -2,229 Descending FlightAware ADS-B
Sun 03:31:47 PM 28.8770 -81.9190 146° Southeast 356 410 11,000 -600 Descending FlightAware ADS-B
Sun 03:32:27 PM 28.8410 -81.8570 124° Southeast 357 411 10,900  Descending FlightAware ADS-B
Sun 03:33:17 PM 28.8000 -81.7850 123° Southeast 360 414 11,000 -667 Climbing FlightAware ADS-B
Sun 03:33:57 PM 28.7620 -81.7210 124° Southeast 333 383 9,900 -1,385 Descending FlightAware ADS-B
Sun 03:34:22 PM 28.7410 -81.6840 123° Southeast 317 365 9,500 -960 Descending FlightAware ADS-B
Sun 03:34:47 PM 28.7250 -81.6510 119° Southeast 315 362 9,100 -900 Descending FlightAware ADS-B
Sun 03:35:02 PM 28.7240 -81.6200 92° East 321 369 8,900 -480 Descending FlightAware ADS-B
Sun 03:35:12 PM 28.7250 -81.6060 85° East 317 365 8,900 171 Level FlightAware ADS-B
Sun 03:35:37 PM 28.7280 -81.5650 85° East 292 336 9,000 133 Climbing FlightAware ADS-B
Sun 03:35:57 PM 28.7220 -81.5370 104° East 274 315 9,000  Level FlightAware ADS-B
Sun 03:36:27 PM 28.6960 -81.5070 135° Southeast 261 300 9,000  Level FlightAware ADS-B
Sun 03:36:47 PM 28.6800 -81.4930 142° Southeast 253 291 9,000  Level FlightAware ADS-B
Sun 03:37:22 PM 28.6450 -81.4610 141° Southeast 253 291 9,000  Level FlightAware ADS-B
Sun 03:37:52 PM 28.6190 -81.4380 142° Southeast 262 302 9,000 -120 Level FlightAware ADS-B
Sun 03:38:12 PM 28.5950 -81.4240 153° Southeast 252 290 8,900  Descending FlightAware ADS-B
Sun 03:38:32 PM 28.5740 -81.4230 178° South 244 281 9,000  Climbing FlightAware ADS-B
Sun 03:38:57 PM 28.5430 -81.4240 182° South 241 277 8,900 -400 Descending FlightAware ADS-B
Sun 03:39:17 PM 28.5220 -81.4240 180° South 241 277 8,700 -900 Descending FlightAware ADS-B
Sun 03:39:37 PM 28.5000 -81.4240 180° South 240 276 8,300 -1,200 Descending FlightAware ADS-B
Sun 03:40:12 PM 28.4590 -81.4240 180° South 239 275 7,600 -1,000 Descending FlightAware ADS-B
Sun 03:40:37 PM 28.4340 -81.4240 180° South 226 260 7,300 -982 Descending FlightAware ADS-B
Sun 03:41:07 PM 28.4000 -81.4240 180° South 223 257 6,700 -1,320 Descending FlightAware ADS-B
Sun 03:41:27 PM 28.3780 -81.4240 180° South 229 264 6,200 -1,527 Descending FlightAware ADS-B
Sun 03:42:02 PM 28.3420 -81.4240 180° South 224 258 5,300 -1,500 Descending FlightAware ADS-B
Sun 03:42:07 PM 28.3360 -81.4240 180° South 224 258 5,200 -800 Descending FlightAware ADS-B
Sun 03:42:32 PM 28.3090 -81.4240 180° South 230 265 4,900 -1,015 Descending FlightAware ADS-B
Sun 03:43:12 PM 28.2670 -81.4160 170° South 233 268 4,100 -1,309 Descending FlightAware ADS-B
Sun 03:43:27 PM 28.2540 -81.4060 146° Southeast 229 264 3,700 -1,600 Descending FlightAware ADS-B
Sun 03:43:42 PM 28.2470 -81.3890 115° Southeast 237 273 3,300 -1,500 Descending FlightAware ADS-B
Sun 03:43:47 PM 28.2460 -81.3810 98° East 235 270 3,200 -1,440 Descending FlightAware ADS-B
Sun 03:44:07 PM 28.2530 -81.3600 69° East 232 267 2,700 -1,371 Descending FlightAware ADS-B
Sun 03:44:22 PM 28.2650 -81.3490 39° Northeast 223 257 2,400 -933 Descending FlightAware ADS-B
Sun 03:44:52 PM 28.2920 -81.3330 28° Northeast 215 247 2,000 -436 Descending FlightAware ADS-B
Sun 03:45:17 PM 28.3140 -81.3220 24° Northeast 187 215 2,000 -545 Level FlightAware ADS-B
Sun 03:45:47 PM 28.3380 -81.3210 North 162 186 1,500 -933 Descending FlightAware ADS-B
Sun 03:46:02 PM 28.3470 -81.3210 360° North 159 183 1,300 -900 Descending FlightAware ADS-B
Sun 03:46:27 PM 28.3660 -81.3240 352° North 136 157 900 -764 Descending FlightAware ADS-B
Sun 03:46:57 PM 28.3870 -81.3260 355° North 145 167 600 -655 Descending FlightAware ADS-B
Sun 03:47:22 PM 28.4040 -81.3270 357° North 134 154 300 -720 Descending FlightAware ADS-B
Sun 03:47:52 PM 28.4200 -81.3270 360° North 134 154 -600 Descending FlightAware ADS-B

Login

Don't have an account? Register now (free) for customized features, flight alerts, and more!